createdAt,value
2018-09-29T03:14:20.875Z,74.98
2018-09-29T03:15:20.833Z,74.06
2018-09-29T03:16:20.829Z,73.87
2018-09-29T03:17:20.813Z,73.58
2018-09-29T03:18:20.811Z,73.77
2018-09-29T03:19:20.847Z,73.77
2018-09-29T03:20:20.793Z,72.53
2018-09-29T03:21:20.780Z,73.55
2018-09-29T03:22:20.782Z,74.21
2018-09-29T03:23:20.780Z,74.44
2018-09-29T03:24:20.761Z,74.40
2018-09-29T03:25:20.757Z,74.69
2018-09-29T03:26:20.744Z,74.06
2018-09-29T03:27:20.745Z,74.12
2018-09-29T03:28:20.746Z,74.88
2018-09-29T03:29:20.732Z,75.36
2018-09-29T03:30:20.731Z,74.60
2018-09-29T03:31:20.770Z,75.45
2018-09-29T03:32:20.713Z,75.55
2018-09-29T03:33:20.705Z,75.36
2018-09-29T03:34:20.697Z,75.07
2018-09-29T03:35:20.700Z,75.26
2018-09-29T03:36:20.707Z,75.36
2018-09-29T03:37:20.684Z,76.12
2018-09-29T03:38:20.690Z,75.99
2018-09-29T03:39:20.704Z,75.45
2018-09-29T03:40:20.691Z,75.89
2018-09-29T03:41:20.661Z,76.03
2018-09-29T03:42:20.653Z,75.74
2018-09-29T03:43:20.647Z,76.18
2018-09-29T03:44:20.663Z,76.03
2018-09-29T03:45:20.659Z,75.89
2018-09-29T03:46:20.633Z,75.93
2018-09-29T03:47:20.632Z,75.79
2018-09-29T03:48:20.627Z,76.31
2018-09-29T03:49:20.621Z,75.64
2018-09-29T03:50:20.614Z,75.32
2018-09-29T03:51:20.609Z,76.18
2018-09-29T03:52:20.602Z,76.18
2018-09-29T03:53:20.599Z,76.65
2018-09-29T03:54:20.593Z,76.75
2018-09-29T03:55:20.586Z,77.22
2018-09-29T03:56:20.578Z,77.61
2018-09-29T03:57:20.575Z,77.61
2018-09-29T03:58:20.566Z,77.42
2018-09-29T03:59:20.562Z,76.94
2018-09-29T04:00:20.558Z,76.84
2018-09-29T04:01:20.566Z,76.75
2018-09-29T04:02:20.547Z,76.94
2018-09-29T04:03:20.536Z,76.84
2018-09-29T04:04:20.541Z,76.84
2018-09-29T04:05:20.526Z,77.13
2018-09-29T04:06:20.532Z,76.46
2018-09-29T04:07:20.511Z,76.84
2018-09-29T04:08:20.525Z,76.46
2018-09-29T04:09:20.519Z,77.13
2018-09-29T04:10:20.499Z,77.42
2018-09-29T04:11:20.491Z,77.22
2018-09-29T04:12:20.489Z,77.51
2018-09-29T04:13:20.492Z,77.13
2018-09-29T04:14:20.479Z,77.89
2018-09-29T04:15:20.472Z,77.42
2018-09-29T04:16:20.471Z,77.61
2018-09-29T04:17:20.471Z,77.42
2018-09-29T04:18:20.455Z,77.22
2018-09-29T04:19:20.462Z,77.03
2018-09-29T04:20:20.461Z,77.03
2018-09-29T04:21:20.458Z,76.84
2018-09-29T04:22:20.430Z,76.65
2018-09-29T04:23:20.420Z,76.94
2018-09-29T04:24:20.432Z,77.03
2018-09-29T04:25:20.412Z,77.51
2018-09-29T04:26:20.430Z,77.89
2018-09-29T04:27:20.398Z,77.22
2018-09-29T04:28:20.404Z,77.03
2018-09-29T04:29:20.405Z,77.03
2018-09-29T04:30:20.389Z,77.32
2018-09-29T04:31:20.379Z,77.22
2018-09-29T04:32:20.373Z,77.66
2018-09-29T04:33:20.367Z,77.47
2018-09-29T04:34:20.366Z,77.56
2018-09-29T04:35:20.369Z,77.70
2018-09-29T04:36:20.342Z,76.84
2018-09-29T04:37:20.359Z,77.03
2018-09-29T04:38:20.341Z,77.03
2018-09-29T04:39:20.326Z,76.94
2018-09-29T04:40:20.332Z,77.00
2018-09-29T04:41:20.329Z,76.94
2018-09-29T04:42:20.328Z,77.76
2018-09-29T04:43:20.415Z,77.56
2018-09-29T04:44:20.313Z,78.52
2018-09-29T04:45:20.295Z,78.42
2018-09-29T04:46:20.293Z,78.42
2018-09-29T04:47:20.277Z,78.23
2018-09-29T04:48:20.274Z,77.95
2018-09-29T04:49:20.337Z,77.85
2018-09-29T04:50:20.288Z,77.95
2018-09-29T04:51:20.288Z,77.95
2018-09-29T04:52:20.278Z,77.95
2018-09-29T04:53:20.246Z,78.04
2018-09-29T04:54:20.239Z,78.61
2018-09-29T04:55:20.239Z,78.80
2018-09-29T04:56:20.262Z,78.90
2018-09-29T04:57:20.246Z,78.80
2018-09-29T04:58:20.246Z,78.99
2018-09-29T04:59:20.292Z,78.90
2018-09-29T05:00:20.227Z,79.28
2018-09-29T05:01:20.223Z,79.09
2018-09-29T05:02:20.231Z,78.90
2018-09-29T05:03:20.239Z,79.47
2018-09-29T05:04:20.229Z,79.28
2018-09-29T05:05:20.225Z,80.23
2018-09-29T05:06:20.223Z,80.13
2018-09-29T05:07:20.217Z,80.23
2018-09-29T05:08:20.223Z,80.33
2018-09-29T05:09:20.139Z,79.94
2018-09-29T05:10:20.138Z,80.13
2018-09-29T05:11:20.143Z,80.13
2018-09-29T05:12:20.139Z,80.04
2018-09-29T05:13:20.147Z,80.33
2018-09-29T05:14:20.108Z,79.94
2018-09-29T05:15:20.101Z,80.71
2018-09-29T05:16:20.107Z,80.90
2018-09-29T05:17:20.085Z,80.13
2018-09-29T05:18:20.083Z,80.71
2018-09-29T05:19:20.098Z,80.71
2018-09-29T05:20:20.077Z,80.71
2018-09-29T05:21:20.065Z,80.61
2018-09-29T05:22:20.059Z,80.42
2018-09-29T05:23:20.194Z,80.80
2018-09-29T05:24:20.054Z,80.71
2018-09-29T05:25:20.044Z,80.61
2018-09-29T05:26:20.034Z,80.42
2018-09-29T05:27:20.041Z,80.80
2018-09-29T05:28:20.033Z,80.71
2018-09-29T05:29:20.050Z,80.71
2018-09-29T05:30:20.042Z,80.61
2018-09-29T05:31:20.004Z,81.05
2018-09-29T05:32:20.012Z,81.09
2018-09-29T05:33:19.990Z,80.66
2018-09-29T05:34:19.982Z,80.99
2018-09-29T05:35:19.986Z,80.95
2018-09-29T05:36:19.988Z,80.95
2018-09-29T05:37:19.969Z,81.24
2018-09-29T05:38:20.007Z,80.86
2018-09-29T05:39:19.944Z,80.95
2018-09-29T05:40:19.940Z,81.52
2018-09-29T05:41:19.950Z,81.43
2018-09-29T05:43:40.971Z,81.33
2018-09-29T05:44:40.935Z,80.95
2018-09-29T05:45:40.932Z,81.14
2018-09-29T05:46:40.932Z,81.62
2018-09-29T05:49:01.978Z,81.71
2018-09-29T05:50:10.581Z,81.33
2018-09-29T05:51:55.365Z,81.33
2018-09-29T05:52:55.329Z,81.05
